This is the latest recevied weather packets stored in our database for station/object SALT. If no packets are shown the sender has not sent any weather packets the latest 10 day(s).
| Time | Temp. | Humidity | Pressure | Rain* | Wind** | Luminosity | Snow |
|---|---|---|---|---|---|---|---|
| 1778157348 | 5° C | 64% | 1018.7 hPa | 0 mm | - | - | - |
| 1778156786 | 5.56° C | 60% | 1018.8 hPa | 0 mm | - | - | - |
| 1778156746 | 5.56° C | 60% | 1018.8 hPa | 0 mm | - | - | - |
| 1778156143 | 5.56° C | 59% | 1018.7 hPa | 0 mm | - | - | - |
| 1778155540 | 5.56° C | 60% | 1018.6 hPa | 0 mm | - | - | - |
| 1778154938 | 5.56° C | 60% | 1018.6 hPa | 0 mm | - | - | - |
| 1778154333 | 5.56° C | 59% | 1018.5 hPa | 0 mm | - | - | - |
| 1778153730 | 6.11° C | 59% | 1018.6 hPa | 0 mm | - | - | - |
| 1778153128 | 6.11° C | 60% | 1018.6 hPa | 0 mm | - | - | - |
| 1778152525 | 5.56° C | 65% | 1018.7 hPa | 0 mm | - | - | - |
| 1778151922 | 6.11° C | 64% | 1018.7 hPa | 0 mm | - | - | - |
| 1778151320 | 6.67° C | 65% | 1018.5 hPa | 0 mm | - | - | - |
| 1778150716 | 6.11° C | 66% | 1018.5 hPa | 0 mm | - | - | - |
| 1778150113 | 6.11° C | 67% | 1018.5 hPa | 0 mm | - | - | - |
| 1778149510 | 5.56° C | 70% | 1018.6 hPa | 0 mm | - | - | - |
| 1778148908 | 5.56° C | 70% | 1018.8 hPa | 0 mm | - | - | - |
| 1778148305 | 6.11° C | 68% | 1018.9 hPa | 0 mm | - | - | - |
| 1778147701 | 6.11° C | 69% | 1018.8 hPa | 0 mm | - | - | - |
| 1778147096 | 6.11° C | 68% | 1018.8 hPa | 0 mm | - | - | - |
| 1778146493 | 6.67° C | 67% | 1018.8 hPa | 0 mm | - | - | - |
| 1778145891 | 7.22° C | 65% | 1018.8 hPa | 0 mm | - | - | - |
| 1778145288 | 7.22° C | 64% | 1018.8 hPa | 0 mm | - | - | - |
| 1778144687 | 7.22° C | 63% | 1018.9 hPa | 0 mm | - | - | - |
| 1778144083 | 7.78° C | 62% | 1018.9 hPa | 0 mm | - | - | - |
| 1778143478 | 7.78° C | 61% | 1018.8 hPa | 0 mm | - | - | - |
* Rain latest 24 hours (hover to see other rain measurements)
** Current wind speed in m/s (hover to see current wind gust speed)